CheckWX is a tool to help pilots better visualize weather data.  It is not intended as a substitute for an official pre-flight weather briefing.

14:06:48 UTC

KUNV TAF
University Park Airport
State College, Pennsylvania, USA
KUNV 251133Z 2512/2612 06004KT P6SM SCT070 FM251500 10007KT P6SM BKN040 FM252200 08004KT P6SM SKC FM261000 09005KT 5SM BR BKN015

Aug-25@
12:00 UTC

Aug-25 @ 12:00 UTC

Aug-25@
15:00 UTC

Aug-25 @ 15:00 UTC

KUNV 251133Z 2512/2612 06004KT P6SM SCT070
Wind
  • 060° at 4 KTS
Cloud Levels
  • Scattered at 7,000' AGL

Aug-25@
15:00 UTC

Aug-25 @ 15:00 UTC

Aug-25@
22:00 UTC

Aug-25 @ 22:00 UTC

FM251500 10007KT P6SM BKN040

From

From Standard forecast or significant change

Wind
  • 100° at 7 KTS
Cloud Levels
  • Broken at 4,000' AGL

Aug-25@
22:00 UTC

Aug-25 @ 22:00 UTC

Aug-26@
10:00 UTC

Aug-26 @ 10:00 UTC

FM252200 08004KT P6SM SKC

From

From Standard forecast or significant change

Wind
  • 080° at 4 KTS
Cloud Levels
  • Clear skies

Aug-26@
10:00 UTC

Aug-26 @ 10:00 UTC

Aug-26@
12:00 UTC

Aug-26 @ 12:00 UTC

FM261000 09005KT 5SM BR BKN015

From

From Standard forecast or significant change

Wind
  • 090° at 5 KTS
Conditions
Mist
Cloud Levels
  • Broken at 1,500' AGL